Time;durP1;ratioP1;P1;durP2;ratioP2;P2;SDS_P1;SDS_P2;PMS_P1;PMS_P2;Temp;Humidity;BMP_temperature;BMP_pressure;BME280_temperature;BME280_humidity;BME280_pressure;Samples;Min_cycle;Max_cycle;Signal;HPM_P1;HPM_P2
2022/06/28 00:00:17;;;;;;;;;;;;;;;22.41;100.00;100549.28;3056069;19;946;-48
2022/06/28 00:01:21;;;;;;;;;;;;;;;22.42;100.00;100558.28;3057353;19;960;-49
2022/06/28 00:02:23;;;;;;;;;;;;;;;22.39;100.00;100556.75;3057019;19;1202;-48
2022/06/28 00:03:28;;;;;;;;;;;;;;;22.37;100.00;100560.63;3057189;19;1130;-48
2022/06/28 00:04:30;;;;;;;;;;;;;;;22.35;100.00;100555.38;3056964;19;952;-48
2022/06/28 00:05:35;;;;;;;;;;;;;;;22.33;100.00;100557.44;3056764;19;1048;-49
2022/06/28 00:06:37;;;;;;;;;;;;;;;22.33;100.00;100553.88;3056914;19;992;-48
2022/06/28 00:07:41;;;;;;;;;;;;;;;22.29;100.00;100547.91;3057326;19;1004;-48
2022/06/28 00:08:43;;;;;;;;;;;;;;;22.27;100.00;100556.22;3056990;19;964;-48
2022/06/28 00:09:47;;;;;;;;;;;;;;;22.27;100.00;100547.22;3056987;19;1043;-48
2022/06/28 00:10:49;;;;;;;;;;;;;;;22.27;100.00;100558.09;3056919;19;1274;-49
2022/06/28 00:11:54;;;;;;;;;;;;;;;22.26;100.00;100562.69;3057004;19;969;-48
2022/06/28 00:12:56;;;;;;;;;;;;;;;22.26;100.00;100556.38;3056963;19;957;-48
2022/06/28 00:14:00;;;;;;;;;;;;;;;22.26;100.00;100554.53;3056789;19;965;-48
2022/06/28 00:16:20;;;;;;;;;;;;;;;22.27;100.00;100560.81;3056589;19;870;-48
2022/06/28 00:17:22;;;;;;;;;;;;;;;22.27;100.00;100566.25;3056288;19;1870;-48
2022/06/28 00:18:26;;;;;;;;;;;;;;;22.27;100.00;100558.94;3056756;19;910;-48
2022/06/28 00:19:28;;;;;;;;;;;;;;;22.26;100.00;100568.13;3056812;19;1346;-48
2022/06/28 00:20:33;;;;;;;;;;;;;;;22.25;100.00;100565.56;3056131;19;1336;-48
2022/06/28 00:21:35;;;;;;;;;;;;;;;22.24;100.00;100570.16;3057012;19;941;-48
2022/06/28 00:22:39;;;;;;;;;;;;;;;22.24;100.00;100564.72;3056299;19;961;-47
2022/06/28 00:23:42;;;;;;;;;;;;;;;22.23;100.00;100554.00;3055871;19;952;-48
2022/06/28 00:24:47;;;;;;;;;;;;;;;22.23;100.00;100556.72;3055639;19;952;-48
2022/06/28 00:25:49;;;;;;;;;;;;;;;22.21;100.00;100558.78;3056743;19;1001;-48
2022/06/28 00:26:53;;;;;;;;;;;;;;;22.19;100.00;100550.78;3056584;19;1842;-48
2022/06/28 00:27:56;;;;;;;;;;;;;;;22.19;100.00;100560.81;3055789;19;960;-48
2022/06/28 00:29:00;;;;;;;;;;;;;;;22.16;100.00;100555.69;3054955;19;910;-48
2022/06/28 00:30:05;;;;;;;;;;;;;;;22.14;100.00;100561.31;3055778;19;889;-48
2022/06/28 00:31:08;;;;;;;;;;;;;;;22.11;100.00;100558.06;3055524;19;883;-47
2022/06/28 00:32:12;;;;;;;;;;;;;;;22.08;100.00;100552.97;3055863;19;905;-49
2022/06/28 00:33:14;;;;;;;;;;;;;;;22.07;100.00;100557.56;3055482;19;858;-47
2022/06/28 00:34:19;;;;;;;;;;;;;;;22.06;100.00;100560.44;3055809;19;944;-48
2022/06/28 00:35:21;;;;;;;;;;;;;;;22.04;100.00;100554.31;3055196;19;945;-48
2022/06/28 00:36:25;;;;;;;;;;;;;;;22.03;100.00;100563.47;3055682;19;1047;-48
2022/06/28 00:37:27;;;;;;;;;;;;;;;22.02;100.00;100554.47;3055894;19;1874;-48
2022/06/28 00:38:32;;;;;;;;;;;;;;;22.00;100.00;100561.09;3056916;19;870;-48
2022/06/28 00:39:34;;;;;;;;;;;;;;;21.98;100.00;100552.25;3056310;19;973;-47
2022/06/28 00:40:41;;;;;;;;;;;;;;;21.95;100.00;100563.44;3055480;19;969;-47
2022/06/28 00:41:46;;;;;;;;;;;;;;;21.92;100.00;100554.59;3054883;19;1181;-47
2022/06/28 00:42:48;;;;;;;;;;;;;;;21.92;100.00;100557.31;3056077;19;829;-49
2022/06/28 00:43:52;;;;;;;;;;;;;;;21.92;100.00;100548.31;3056218;19;941;-47
2022/06/28 00:45:01;;;;;;;;;;;;;;;21.90;100.00;100553.91;3056507;19;1218;-49
2022/06/28 00:46:06;;;;;;;;;;;;;;;21.88;100.00;100557.81;3056334;19;1204;-48
2022/06/28 00:47:09;;;;;;;;;;;;;;;21.86;100.00;100552.53;3056759;19;944;-48
2022/06/28 00:48:15;;;;;;;;;;;;;;;21.86;100.00;100555.25;3056314;19;1040;-48
2022/06/28 00:49:16;;;;;;;;;;;;;;;21.85;100.00;100575.31;3056150;19;1005;-48
2022/06/28 00:50:21;;;;;;;;;;;;;;;21.83;100.00;100571.91;3055505;19;981;-48
2022/06/28 00:51:24;;;;;;;;;;;;;;;21.81;100.00;100568.50;3055885;19;874;-47
2022/06/28 00:52:30;;;;;;;;;;;;;;;21.78;100.00;100574.25;3056121;19;993;-50
2022/06/28 00:53:32;;;;;;;;;;;;;;;21.76;100.00;100570.00;3056506;19;980;-48
2022/06/28 00:54:36;;;;;;;;;;;;;;;21.75;100.00;100574.56;3056270;19;925;-48
2022/06/28 00:55:39;;;;;;;;;;;;;;;21.70;100.00;100576.09;3056314;19;890;-48
2022/06/28 00:56:43;;;;;;;;;;;;;;;21.68;100.00;100573.53;3056428;19;929;-49
2022/06/28 00:57:45;;;;;;;;;;;;;;;21.64;100.00;100561.28;3055767;19;1849;-48
2022/06/28 00:58:52;;;;;;;;;;;;;;;21.61;100.00;100567.06;3056742;19;889;-48
2022/06/28 00:59:54;;;;;;;;;;;;;;;21.60;100.00;100565.38;3055379;19;895;-48
2022/06/28 01:01:06;;;;;;;;;;;;;;;21.58;100.00;100571.97;3055584;19;937;-48
2022/06/28 01:02:09;;;;;;;;;;;;;;;21.56;100.00;100564.84;3055301;19;885;-48
2022/06/28 01:03:14;;;;;;;;;;;;;;;21.56;100.00;100563.97;3055646;19;976;-48
2022/06/28 01:04:19;;;;;;;;;;;;;;;21.54;100.00;100557.84;3055093;19;963;-48
2022/06/28 01:05:23;;;;;;;;;;;;;;;21.54;100.00;100566.00;3055598;19;960;-50
2022/06/28 01:06:28;;;;;;;;;;;;;;;21.53;100.00;100561.59;3055429;19;1007;-48
2022/06/28 01:07:30;;;;;;;;;;;;;;;21.53;100.00;100558.88;3055416;19;976;-48
2022/06/28 01:08:35;;;;;;;;;;;;;;;21.52;100.00;100562.59;3054883;19;1039;-48
2022/06/28 01:09:36;;;;;;;;;;;;;;;21.54;100.00;100552.44;3055377;19;940;-48
2022/06/28 01:10:42;;;;;;;;;;;;;;;21.55;100.00;100562.28;3055007;19;798;-48
2022/06/28 01:11:45;;;;;;;;;;;;;;;21.55;100.00;100562.28;3055601;19;865;-48
2022/06/28 01:12:50;;;;;;;;;;;;;;;21.54;100.00;100552.44;3055307;19;972;-48
2022/06/28 01:13:53;;;;;;;;;;;;;;;21.54;100.00;100555.16;3055675;19;2045;-48
2022/06/28 01:15:00;;;;;;;;;;;;;;;21.54;100.00;100549.72;3055120;19;1194;-48
2022/06/28 01:16:23;;;;;;;;;;;;;;;21.52;100.00;100552.59;3055498;19;893;-49
2022/06/28 01:17:35;;;;;;;;;;;;;;;21.51;100.00;100556.31;3054864;19;1857;-49
2022/06/28 01:19:04;;;;;;;;;;;;;;;21.49;100.00;100557.53;3054825;19;933;-48
2022/06/28 01:20:09;;;;;;;;;;;;;;;21.47;100.00;100562.25;3055405;19;1175;-48
2022/06/28 01:21:38;;;;;;;;;;;;;;;21.44;100.00;100566.13;3054132;19;1063;-48
2022/06/28 01:22:41;;;;;;;;;;;;;;;21.45;100.00;100564.28;3055245;19;1092;-48
2022/06/28 01:23:50;;;;;;;;;;;;;;;21.43;100.00;100563.59;3055467;19;1001;-48
2022/06/28 01:25:24;;;;;;;;;;;;;;;21.43;100.00;100569.00;3054959;19;1591;-48
2022/06/28 01:26:26;;;;;;;;;;;;;;;21.42;100.00;100564.59;3055186;19;945;-48
2022/06/28 01:27:31;;;;;;;;;;;;;;;21.42;100.00;100561.88;3055782;19;1933;-48
2022/06/28 01:28:33;;;;;;;;;;;;;;;21.41;100.00;100565.59;3055026;19;1259;-49
2022/06/28 01:29:51;;;;;;;;;;;;;;;21.40;100.00;100566.63;3054896;19;1011;-48
2022/06/28 01:31:22;;;;;;;;;;;;;;;21.41;100.00;100565.59;3053544;19;1144;-49
2022/06/28 01:32:26;;;;;;;;;;;;;;;21.38;100.00;100560.50;3055083;19;1080;-48
2022/06/28 01:33:31;;;;;;;;;;;;;;;21.37;100.00;100558.81;3054896;19;1011;-48
2022/06/28 01:34:33;;;;;;;;;;;;;;;21.37;100.00;100564.25;3054971;19;1076;-47
2022/06/28 01:35:37;;;;;;;;;;;;;;;21.38;100.00;100560.50;3056087;19;981;-48
2022/06/28 01:36:39;;;;;;;;;;;;;;;21.36;100.00;100570.69;3058138;19;1309;-48
2022/06/28 01:37:44;;;;;;;;;;;;;;;21.34;100.00;100568.13;3057844;19;1004;-48
2022/06/28 01:38:46;;;;;;;;;;;;;;;21.32;100.00;100561.16;3057128;19;1987;-48
2022/06/28 01:39:51;;;;;;;;;;;;;;;21.29;100.00;100550.63;3058126;19;944;-48
2022/06/28 01:40:54;;;;;;;;;;;;;;;21.30;100.00;100564.03;3057916;19;1036;-48
2022/06/28 01:41:58;;;;;;;;;;;;;;;21.28;100.00;100555.19;3057171;19;1212;-48
2022/06/28 01:43:02;;;;;;;;;;;;;;;21.27;100.00;100549.91;3057922;19;1110;-48
2022/06/28 01:44:11;;;;;;;;;;;;;;;21.26;100.00;100562.63;3057863;19;996;-48
2022/06/28 01:45:28;;;;;;;;;;;;;;;21.25;100.00;100549.25;3057900;19;901;-49
2022/06/28 01:46:30;;;;;;;;;;;;;;;21.24;100.00;100552.97;3057839;19;1033;-48
2022/06/28 01:47:44;;;;;;;;;;;;;;;21.23;100.00;100554.00;3057166;19;929;-48
2022/06/28 01:49:08;;;;;;;;;;;;;;;21.22;100.00;100557.72;3058544;19;889;-48
2022/06/28 01:50:11;;;;;;;;;;;;;;;21.18;100.00;100539.03;3058174;19;956;-48
2022/06/28 01:51:19;;;;;;;;;;;;;;;21.16;100.00;100551.88;3058137;19;874;-49
2022/06/28 01:52:21;;;;;;;;;;;;;;;21.14;100.00;100553.88;3057611;19;1052;-48
2022/06/28 01:53:26;;;;;;;;;;;;;;;21.12;100.00;100539.66;3058243;19;846;-48
2022/06/28 01:54:34;;;;;;;;;;;;;;;21.10;100.00;100557.09;3058067;19;947;-48
2022/06/28 01:55:39;;;;;;;;;;;;;;;21.07;100.00;100552.00;3057972;19;977;-48
2022/06/28 01:56:50;;;;;;;;;;;;;;;21.05;100.00;100552.16;3057764;19;1250;-48
2022/06/28 01:57:58;;;;;;;;;;;;;;;21.01;100.00;100537.19;3058265;19;1060;-48
2022/06/28 01:59:00;;;;;;;;;;;;;;;20.98;100.00;100526.69;3056517;19;1849;-48
2022/06/28 02:00:14;;;;;;;;;;;;;;;20.95;100.00;100527.00;3057840;19;960;-48
2022/06/28 02:01:15;;;;;;;;;;;;;;;20.94;100.00;100533.44;3057992;19;955;-48
2022/06/28 02:02:22;;;;;;;;;;;;;;;20.94;100.00;100535.28;3057194;19;1110;-48
2022/06/28 02:03:52;;;;;;;;;;;;;;;20.91;100.00;100525.59;3058357;19;1400;-48
2022/06/28 02:05:08;;;;;;;;;;;;;;;20.90;100.00;100523.88;3057645;19;1239;-48
2022/06/28 02:06:13;;;;;;;;;;;;;;;20.89;100.00;100526.78;3057906;19;1395;-48
2022/06/28 02:07:17;;;;;;;;;;;;;;;20.88;100.00;100519.66;3057744;19;951;-48
2022/06/28 02:08:21;;;;;;;;;;;;;;;20.88;100.00;100525.09;3057652;19;1186;-48
2022/06/28 02:09:34;;;;;;;;;;;;;;;20.87;100.00;100518.81;3057617;19;1713;-48
2022/06/28 02:10:37;;;;;;;;;;;;;;;20.85;100.00;100509.97;3057841;19;936;-48
2022/06/28 02:11:41;;;;;;;;;;;;;;;20.85;100.00;100516.25;3057973;19;890;-47
2022/06/28 02:12:44;;;;;;;;;;;;;;;20.85;100.00;100508.13;3057922;19;869;-48
2022/06/28 02:13:49;;;;;;;;;;;;;;;20.85;100.00;100509.97;3057870;19;937;-47
2022/06/28 02:14:50;;;;;;;;;;;;;;;20.83;100.00;100512.84;3057605;19;1052;-48
2022/06/28 02:15:55;;;;;;;;;;;;;;;20.84;100.00;100506.41;3057915;19;1660;-48
2022/06/28 02:16:59;;;;;;;;;;;;;;;20.84;100.00;100508.28;3057365;19;988;-48
2022/06/28 02:18:02;;;;;;;;;;;;;;;20.84;100.00;100513.69;3057992;19;814;-48
2022/06/28 02:19:06;;;;;;;;;;;;;;;20.83;100.00;100518.28;3056558;19;1856;-48
2022/06/28 02:20:09;;;;;;;;;;;;;;;20.81;100.00;100519.44;3057977;19;894;-48
2022/06/28 02:21:13;;;;;;;;;;;;;;;20.82;100.00;100527.41;3057842;19;1245;-48
2022/06/28 02:22:15;;;;;;;;;;;;;;;20.74;100.00;100504.81;3057853;19;882;-47
2022/06/28 02:23:20;;;;;;;;;;;;;;;20.81;100.00;100531.13;3057235;19;1068;-48
2022/06/28 02:24:22;;;;;;;;;;;;;;;20.80;100.00;100536.72;3057519;19;901;-48
2022/06/28 02:25:26;;;;;;;;;;;;;;;20.79;100.00;100535.00;3057180;19;1304;-48
2022/06/28 02:26:28;;;;;;;;;;;;;;;20.80;100.00;100536.72;3057811;19;790;-48
2022/06/28 02:27:33;;;;;;;;;;;;;;;20.80;100.00;100534.84;3057353;19;952;-48
2022/06/28 02:28:35;;;;;;;;;;;;;;;20.81;100.00;100541.13;3057382;19;859;-48
2022/06/28 02:29:39;;;;;;;;;;;;;;;20.81;100.00;100533.00;3056838;19;1325;-48
2022/06/28 02:30:41;;;;;;;;;;;;;;;20.82;100.00;100543.69;3058472;19;1488;-48
2022/06/28 02:31:45;;;;;;;;;;;;;;;20.83;100.00;100549.97;3057157;19;878;-48
2022/06/28 02:32:48;;;;;;;;;;;;;;;20.86;100.00;100538.81;3057264;19;1071;-48
2022/06/28 02:33:53;;;;;;;;;;;;;;;20.86;100.00;100538.81;3057169;19;953;-48
2022/06/28 02:41:22;;;;;;;;;;;;;;;20.95;100.00;100543.28;3057709;19;861;-47
2022/06/28 02:42:24;;;;;;;;;;;;;;;20.97;100.00;100545.81;3058077;19;964;-48
2022/06/28 02:43:29;;;;;;;;;;;;;;;21.01;100.00;100544.50;3058408;19;907;-48
2022/06/28 02:44:30;;;;;;;;;;;;;;;21.04;100.00;100555.88;3056893;19;2243;-48
2022/06/28 02:45:35;;;;;;;;;;;;;;;21.07;100.00;100555.56;3057296;19;881;-48
2022/06/28 02:46:37;;;;;;;;;;;;;;;21.12;100.00;100549.66;3057558;19;1123;-48
2022/06/28 02:47:43;;;;;;;;;;;;;;;21.19;100.00;100550.75;3056002;19;940;-48
2022/06/28 02:48:45;;;;;;;;;;;;;;;21.36;100.00;100551.69;3056859;19;1051;-48
2022/06/28 02:49:49;;;;;;;;;;;;;;;21.54;100.00;100566.84;3057381;19;1001;-48
2022/06/28 02:50:51;;;;;;;;;;;;;;;21.71;100.00;100567.78;3056930;19;1811;-48
2022/06/28 02:51:56;;;;;;;;;;;;;;;21.79;100.00;100570.53;3057096;19;1072;-48
2022/06/28 02:52:58;;;;;;;;;;;;;;;21.87;100.00;100573.25;3057952;19;1109;-48
2022/06/28 02:54:02;;;;;;;;;;;;;;;21.91;100.00;100574.63;3057886;19;1344;-48
2022/06/28 02:55:04;;;;;;;;;;;;;;;21.99;100.00;100564.81;3057822;19;1068;-48
2022/06/28 02:56:08;;;;;;;;;;;;;;;22.03;100.00;100571.63;3057267;19;875;-48
2022/06/28 02:57:12;;;;;;;;;;;;;;;22.04;100.00;100562.47;3057013;19;976;-48
2022/06/28 02:58:16;;;;;;;;;;;;;;;22.02;100.00;100575.38;3057024;19;1287;-48
2022/06/28 02:59:18;;;;;;;;;;;;;;;22.10;100.00;100573.50;3056660;19;1859;-49
2022/06/28 03:00:23;;;;;;;;;;;;;;;22.26;100.00;100579.00;3056800;19;1044;-48
2022/06/28 03:01:24;;;;;;;;;;;;;;;22.55;100.00;100573.06;3058355;19;1474;-48
2022/06/28 03:02:29;;;;;;;;;;;;;;;22.84;100.00;100578.00;3057176;19;1721;-48
2022/06/28 03:03:31;;;;;;;;;;;;;;;23.31;100.00;100583.53;3057138;19;898;-48
2022/06/28 03:04:36;;;;;;;;;;;;;;;23.68;100.00;100591.09;3058028;19;965;-48
2022/06/28 03:05:38;;;;;;;;;;;;;;;24.17;100.00;100596.31;3056600;19;973;-48
2022/06/28 03:06:45;;;;;;;;;;;;;;;24.69;100.00;100603.81;3057219;19;997;-48
2022/06/28 03:07:47;;;;;;;;;;;;;;;25.16;100.00;100603.59;3056669;19;883;-48
2022/06/28 03:08:52;;;;;;;;;;;;;;;25.61;100.00;100602.59;3057183;19;1160;-48
2022/06/28 03:09:54;;;;;;;;;;;;;;;26.06;100.00;100614.34;3056991;19;871;-48
2022/06/28 03:10:58;;;;;;;;;;;;;;;26.44;100.00;100604.09;3057822;19;1039;-49
2022/06/28 03:12:00;;;;;;;;;;;;;;;26.81;100.00;100612.00;3057495;19;941;-48
2022/06/28 03:13:05;;;;;;;;;;;;;;;27.17;100.00;100619.31;3057096;19;839;-48
2022/06/28 03:14:07;;;;;;;;;;;;;;;27.52;100.00;100623.78;3056524;19;959;-48
2022/06/28 03:15:13;;;;;;;;;;;;;;;27.85;99.69;100620.41;3056932;19;965;-48
2022/06/28 03:16:20;;;;;;;;;;;;;;;28.23;95.96;100618.91;3056950;19;952;-48
2022/06/28 03:17:25;;;;;;;;;;;;;;;28.55;92.73;100621.94;3056637;19;853;-49
2022/06/28 03:18:26;;;;;;;;;;;;;;;28.88;89.67;100624.75;3056728;19;940;-48
2022/06/28 03:19:31;;;;;;;;;;;;;;;29.18;87.03;100625.19;3057217;19;1866;-48
2022/06/28 03:20:34;;;;;;;;;;;;;;;29.49;84.70;100628.13;3056988;19;881;-48
2022/06/28 03:21:39;;;;;;;;;;;;;;;29.80;82.36;100621.94;3056418;19;1253;-48
2022/06/28 03:22:41;;;;;;;;;;;;;;;30.12;80.26;100630.28;3056747;19;1717;-48
2022/06/28 03:23:46;;;;;;;;;;;;;;;30.38;77.92;100621.91;3056714;19;880;-48
2022/06/28 03:24:48;;;;;;;;;;;;;;;30.61;75.72;100626.88;3056965;19;1289;-48
2022/06/28 03:25:53;;;;;;;;;;;;;;;30.88;74.46;100633.06;3056867;19;890;-48
2022/06/28 03:26:55;;;;;;;;;;;;;;;31.19;73.13;100634.94;3056920;19;881;-48
2022/06/28 03:27:59;;;;;;;;;;;;;;;31.47;71.54;100643.59;3056504;19;1010;-48
2022/06/28 03:29:01;;;;;;;;;;;;;;;31.75;70.02;100632.06;3056559;19;846;-48
2022/06/28 03:30:06;;;;;;;;;;;;;;;32.01;68.67;100641.94;3056403;19;1339;-48
2022/06/28 03:31:11;;;;;;;;;;;;;;;32.31;67.52;100631.81;3056539;19;877;-47
2022/06/28 03:32:15;;;;;;;;;;;;;;;32.58;66.32;100635.06;3056497;19;1346;-48
2022/06/28 03:33:17;;;;;;;;;;;;;;;32.83;64.91;100632.16;3056545;19;996;-48
2022/06/28 03:34:22;;;;;;;;;;;;;;;33.05;63.46;100635.19;3056358;19;1772;-48
2022/06/28 03:35:24;;;;;;;;;;;;;;;33.29;62.53;100633.31;3056667;19;996;-48
2022/06/28 03:36:28;;;;;;;;;;;;;;;33.54;61.83;100639.47;3056108;19;1032;-49
2022/06/28 03:37:46;;;;;;;;;;;;;;;33.82;60.49;100630.41;3056453;19;993;-48
2022/06/28 03:38:51;;;;;;;;;;;;;;;34.02;59.40;100641.09;3056607;19;933;-48
2022/06/28 03:40:01;;;;;;;;;;;;;;;34.27;58.67;100636.97;3056227;19;1850;-49
2022/06/28 03:41:04;;;;;;;;;;;;;;;34.47;57.77;100633.72;3058094;19;1475;-48
2022/06/28 03:42:08;;;;;;;;;;;;;;;34.67;57.30;100639.66;3055686;19;1200;-48
2022/06/28 03:43:12;;;;;;;;;;;;;;;34.89;56.59;100647.28;3055932;19;964;-48
2022/06/28 03:44:17;;;;;;;;;;;;;;;35.12;56.32;100647.13;3056347;19;1346;-48
2022/06/28 03:45:19;;;;;;;;;;;;;;;35.36;55.29;100642.28;3056166;19;1127;-48
2022/06/28 03:46:43;;;;;;;;;;;;;;;35.64;54.39;100655.19;3056734;19;968;-48
2022/06/28 03:48:23;;;;;;;;;;;;;;;35.89;53.20;100652.78;3054953;19;1139;-48
2022/06/28 03:49:48;;;;;;;;;;;;;;;36.16;52.97;100650.09;3055194;19;1848;-48
2022/06/28 03:50:55;;;;;;;;;;;;;;;36.37;52.04;100659.53;3055693;19;1487;-49
2022/06/28 03:52:10;;;;;;;;;;;;;;;36.54;51.50;100654.72;3055996;19;1489;-48
2022/06/28 03:53:32;;;;;;;;;;;;;;;36.76;51.08;100657.47;3055792;19;2228;-49
2022/06/28 03:54:41;;;;;;;;;;;;;;;36.94;50.78;100664.63;3056214;19;949;-48
2022/06/28 03:55:53;;;;;;;;;;;;;;;37.12;50.32;100651.13;3056139;19;1115;-48
2022/06/28 03:56:57;;;;;;;;;;;;;;;37.30;49.86;100660.22;3056155;19;933;-49
2022/06/28 03:57:59;;;;;;;;;;;;;;;37.52;49.41;100665.66;3056147;19;925;-48
2022/06/28 03:59:04;;;;;;;;;;;;;;;37.66;48.75;100672.47;3055963;19;940;-49
2022/06/28 04:00:06;;;;;;;;;;;;;;;37.83;48.54;100670.34;3055136;19;1882;-48
2022/06/28 04:01:16;;;;;;;;;;;;;;;38.03;48.26;100662.09;3056504;19;996;-49
2022/06/28 04:02:18;;;;;;;;;;;;;;;38.20;47.70;100661.91;3056141;19;1317;-49
2022/06/28 04:03:22;;;;;;;;;;;;;;;38.41;47.79;100657.22;3055846;19;1079;-48
2022/06/28 04:04:25;;;;;;;;;;;;;;;38.50;47.14;100661.19;3056019;19;1953;-49
2022/06/28 04:05:30;;;;;;;;;;;;;;;38.68;46.51;100666.25;3055985;19;878;-48
2022/06/28 04:06:35;;;;;;;;;;;;;;;38.82;46.23;100659.03;3056267;19;747;-48
2022/06/28 04:07:39;;;;;;;;;;;;;;;38.96;46.22;100667.69;3056130;19;933;-48
2022/06/28 04:08:41;;;;;;;;;;;;;;;39.09;45.69;100658.81;3056171;19;1028;-48
2022/06/28 04:09:46;;;;;;;;;;;;;;;39.14;45.07;100655.16;3055759;19;981;-49
2022/06/28 04:10:48;;;;;;;;;;;;;;;39.22;44.83;100663.00;3056088;19;925;-50
2022/06/28 04:11:59;;;;;;;;;;;;;;;39.36;45.30;100664.09;3055625;19;889;-49
2022/06/28 04:13:01;;;;;;;;;;;;;;;39.55;45.04;100656.84;3055727;19;928;-48
2022/06/28 04:14:06;;;;;;;;;;;;;;;39.71;44.58;100654.00;3055772;19;897;-49
2022/06/28 04:15:08;;;;;;;;;;;;;;;39.79;44.01;100650.63;3055966;19;1886;-48
2022/06/28 04:16:12;;;;;;;;;;;;;;;39.87;44.03;100652.84;3055662;19;1414;-48
2022/06/28 04:17:15;;;;;;;;;;;;;;;39.94;43.70;100650.59;3057305;19;1671;-48
2022/06/28 04:18:40;;;;;;;;;;;;;;;40.09;43.65;100644.97;3055607;19;1108;-48
2022/06/28 04:19:53;;;;;;;;;;;;;;;40.13;43.85;100657.22;3056743;19;1632;-49
2022/06/28 04:20:56;;;;;;;;;;;;;;;40.06;43.58;100650.28;3056465;19;1853;-49
2022/06/28 04:22:02;;;;;;;;;;;;;;;40.04;43.14;100655.31;3055047;19;934;-49
2022/06/28 04:23:04;;;;;;;;;;;;;;;40.06;43.60;100651.13;3056071;19;1115;-49
2022/06/28 04:24:10;;;;;;;;;;;;;;;40.16;43.25;100645.47;3055915;19;1404;-48
2022/06/28 04:25:26;;;;;;;;;;;;;;;40.25;43.05;100654.09;3056164;19;1132;-49
2022/06/28 04:26:30;;;;;;;;;;;;;;;40.35;42.73;100644.84;3055289;19;1173;-49
2022/06/28 04:27:35;;;;;;;;;;;;;;;40.45;43.15;100653.19;3055478;19;1479;-48
2022/06/28 04:28:37;;;;;;;;;;;;;;;40.67;42.83;100645.22;3055343;19;965;-49
2022/06/28 04:29:45;;;;;;;;;;;;;;;40.88;42.47;100640.31;3055809;19;972;-49
2022/06/28 04:31:18;;;;;;;;;;;;;;;41.11;42.26;100644.34;3055639;19;1102;-49
2022/06/28 04:32:20;;;;;;;;;;;;;;;41.25;41.77;100639.75;3056110;19;912;-49
2022/06/28 04:33:32;;;;;;;;;;;;;;;41.49;41.77;100640.63;3055878;19;981;-48
2022/06/28 04:34:35;;;;;;;;;;;;;;;41.60;41.33;100642.22;3055966;19;896;-48
2022/06/28 04:35:41;;;;;;;;;;;;;;;41.74;41.25;100647.13;3056066;19;936;-49
2022/06/28 04:36:45;;;;;;;;;;;;;;;41.80;40.95;100646.75;3055888;19;919;-49
2022/06/28 04:37:47;;;;;;;;;;;;;;;41.97;40.94;100657.53;3054129;19;1548;-49
2022/06/28 04:39:14;;;;;;;;;;;;;;;42.06;40.60;100652.91;3056722;19;1141;-48
2022/06/28 04:40:33;;;;;;;;;;;;;;;42.23;40.69;100644.00;3055679;19;1969;-49
2022/06/28 04:41:52;;;;;;;;;;;;;;;42.35;40.07;100636.81;3054819;19;1248;-49
2022/06/28 04:42:56;;;;;;;;;;;;;;;42.50;40.31;100643.38;3055612;19;857;-48
2022/06/28 04:44:01;;;;;;;;;;;;;;;42.60;39.89;100632.00;3056004;19;846;-49
2022/06/28 04:45:06;;;;;;;;;;;;;;;42.73;39.75;100636.84;3055382;19;1447;-49
2022/06/28 04:46:24;;;;;;;;;;;;;;;42.82;39.51;100629.44;3055559;19;1182;-49
2022/06/28 04:47:28;;;;;;;;;;;;;;;42.87;38.97;100634.94;3055727;19;963;-49
2022/06/28 04:48:34;;;;;;;;;;;;;;;42.90;39.07;100636.31;3055911;19;1726;-50
2022/06/28 04:49:36;;;;;;;;;;;;;;;42.96;39.51;100627.50;3055250;19;1087;-49
2022/06/28 04:50:40;;;;;;;;;;;;;;;43.01;39.13;100633.03;3055556;19;996;-49
2022/06/28 04:51:48;;;;;;;;;;;;;;;43.03;39.19;100622.31;3055389;19;901;-49
2022/06/28 04:53:00;;;;;;;;;;;;;;;43.16;39.04;100631.09;3055844;19;1151;-49
2022/06/28 04:54:04;;;;;;;;;;;;;;;43.24;39.04;100636.03;3055412;19;1150;-49
2022/06/28 04:55:20;;;;;;;;;;;;;;;43.31;38.93;100625.25;3055545;19;1223;-49
2022/06/28 04:56:33;;;;;;;;;;;;;;;43.43;39.10;100628.38;3055470;19;1083;-50
2022/06/28 04:57:35;;;;;;;;;;;;;;;43.47;38.79;100623.81;3055757;19;943;-49
2022/06/28 04:58:47;;;;;;;;;;;;;;;43.39;38.50;100627.31;3055893;19;857;-49
2022/06/28 04:59:49;;;;;;;;;;;;;;;43.38;38.43;100625.66;3055532;19;941;-49
2022/06/28 05:01:10;;;;;;;;;;;;;;;43.45;38.25;100631.72;3055204;19;1843;-49
2022/06/28 05:02:15;;;;;;;;;;;;;;;43.47;38.18;100632.25;3055324;19;1021;-49
2022/06/28 05:03:20;;;;;;;;;;;;;;;43.38;38.43;100620.03;3055310;19;1040;-49
2022/06/28 05:04:44;;;;;;;;;;;;;;;43.43;38.39;100628.38;3055576;19;1107;-49
2022/06/28 05:05:57;;;;;;;;;;;;;;;43.46;38.94;100627.78;3055618;19;873;-49
2022/06/28 05:07:01;;;;;;;;;;;;;;;43.53;38.79;100628.19;3055322;19;1002;-50
2022/06/28 05:08:03;;;;;;;;;;;;;;;43.64;38.86;100626.03;3055255;19;984;-49
2022/06/28 05:09:19;;;;;;;;;;;;;;;43.68;37.96;100624.28;3055525;19;1204;-49
2022/06/28 05:10:40;;;;;;;;;;;;;;;43.78;38.51;100624.91;3053502;19;1008;-49
2022/06/28 05:12:04;;;;;;;;;;;;;;;43.79;38.29;100620.94;3054412;19;2441;-49
2022/06/28 05:13:14;;;;;;;;;;;;;;;43.66;38.13;100621.78;3057126;19;1794;-49
2022/06/28 05:14:19;;;;;;;;;;;;;;;43.67;38.33;100609.38;3057228;19;1953;-49
2022/06/28 05:15:21;;;;;;;;;;;;;;;43.67;38.53;100609.38;3056398;19;1620;-50
2022/06/28 05:16:40;;;;;;;;;;;;;;;43.63;38.73;100610.31;3056815;19;1797;-49
2022/06/28 05:17:46;;;;;;;;;;;;;;;43.42;38.63;100601.41;3054474;19;1412;-49
2022/06/28 05:18:48;;;;;;;;;;;;;;;42.73;39.12;100594.75;3056001;19;1779;-49
2022/06/28 05:19:57;;;;;;;;;;;;;;;41.14;40.86;100597.00;3056453;19;1488;-48
2022/06/28 05:21:00;;;;;;;;;;;;;;;39.49;43.31;100596.47;3055746;19;1879;-49
2022/06/28 05:22:04;;;;;;;;;;;;;;;38.28;45.01;100585.28;3056143;19;1818;-49
2022/06/28 05:23:16;;;;;;;;;;;;;;;37.07;47.70;100580.69;3056102;19;1226;-49
2022/06/28 05:24:32;;;;;;;;;;;;;;;36.09;50.05;100593.88;3056610;19;1694;-49
2022/06/28 05:25:38;;;;;;;;;;;;;;;35.32;51.55;100580.88;3055106;19;1404;-49
2022/06/28 05:26:43;;;;;;;;;;;;;;;34.69;52.84;100587.56;3055146;19;1467;-49
2022/06/28 05:27:53;;;;;;;;;;;;;;;33.97;54.65;100584.50;3053672;19;1368;-49
2022/06/28 05:28:57;;;;;;;;;;;;;;;33.48;56.07;100587.84;3055218;19;1329;-50
2022/06/28 05:29:59;;;;;;;;;;;;;;;33.00;57.69;100583.34;3054958;19;1735;-49
2022/06/28 05:31:04;;;;;;;;;;;;;;;32.59;60.30;100578.72;3053459;19;1253;-48
2022/06/28 05:32:06;;;;;;;;;;;;;;;32.17;61.53;100573.13;3056443;19;1865;-48
2022/06/28 05:33:11;;;;;;;;;;;;;;;31.86;62.84;100576.09;3053776;19;1787;-49
2022/06/28 05:34:13;;;;;;;;;;;;;;;31.53;64.61;100570.91;3053662;19;1386;-49
2022/06/28 05:35:17;;;;;;;;;;;;;;;31.26;65.77;100564.03;3054589;19;1930;-49
2022/06/28 05:36:19;;;;;;;;;;;;;;;31.02;67.19;100562.97;3054877;19;987;-49
2022/06/28 05:37:24;;;;;;;;;;;;;;;30.78;68.05;100567.41;3055234;19;1743;-49
2022/06/28 05:38:27;;;;;;;;;;;;;;;30.56;69.24;100557.81;3054715;19;1166;-49
2022/06/28 05:39:31;;;;;;;;;;;;;;;30.37;70.33;100554.97;3052962;19;973;-49
2022/06/28 05:40:33;;;;;;;;;;;;;;;30.21;71.63;100555.47;3054736;19;1853;-49
2022/06/28 05:41:38;;;;;;;;;;;;;;;30.08;73.53;100561.06;3052227;19;1838;-49
2022/06/28 05:42:43;;;;;;;;;;;;;;;29.95;75.25;100558.34;3055592;19;2366;-49
2022/06/28 05:43:45;;;;;;;;;;;;;;;29.86;76.67;100556.91;3054044;19;1665;-49
2022/06/28 05:44:49;;;;;;;;;;;;;;;29.76;76.88;100559.28;3052771;19;1859;-49
2022/06/28 05:45:51;;;;;;;;;;;;;;;29.62;76.41;100552.97;3049795;19;1589;-48
2022/06/28 05:46:56;;;;;;;;;;;;;;;29.51;76.35;100554.50;3054103;19;1705;-49
2022/06/28 05:48:01;;;;;;;;;;;;;;;29.43;77.18;100552.00;3053261;19;1786;-49
2022/06/28 05:49:03;;;;;;;;;;;;;;;29.35;78.50;100550.28;3054240;19;1792;-49
2022/06/28 05:50:08;;;;;;;;;;;;;;;29.29;80.47;100555.81;3054692;19;1755;-49
2022/06/28 05:51:10;;;;;;;;;;;;;;;29.24;81.22;100553.69;3054296;19;1809;-49